Landers, California
Current Conditions -  °F | °C
As of 3:56 AM on Monday 24 Nov 2014 (Local Time) from KNXP Reporting Station
Clear Clear  
Wind Chill: 39°   Ceiling: Unl
Heat Index: 44°   Visibility: 10mi
Dew Point:   Wind: 9mph
Humidity: 23%   Direction: 270°W
Pressure: 30.31"   Gusts: NA
Location:  34.27°N, 116.39°W
Report Text: KNXP 241156Z AUTO 27008KT 10SM CLR 07/M13 A3031 RMK AO2 SLP247 T00671133 10083 20044 56005 $
Loading
Personal Weather Stations






























Interactive Weather Map New forecast layout! Learn more

10-Day Weather Forecast

Advertisements
Track Severe Weather on mobile